Air Navigation Services of Czech Republic
Airport: LKCV Updated:  21.01.2020 23:00:27  UTC
 METAR LKCV 21.01. 23:00 ...
METAR LKCV 212300Z 20004KT 130V260 7000 OVC008 M02/M04 Q1037 NOSIG RMK GRN GRN=
 TAF LKCV 21.01. 17:00 ...
TAF LKCV 211700Z 2118/2218 20004KT 6000 OVC008      BECMG 2118/2121 3000 BR OVC005      TEMPO 2120/2207 0400 FZFG OVC001      BECMG 2210/2213 32010KT 9999 BKN025=